Time;durP1;ratioP1;P1;durP2;ratioP2;P2;SDS_P1;SDS_P2;PMS_P1;PMS_P2;Temp;Humidity;BMP_temperature;BMP_pressure;BME280_temperature;BME280_humidity;BME280_pressure;Samples;Min_cycle;Max_cycle;Signal;HPM_P1;HPM_P2
2021/09/30 07:15:46;;;;;;;31.03;11.97;;;10.20;99.90;;;;;;5081052;27;20454;-66
2021/09/30 07:18:15;;;;;;;27.27;12.23;;;10.20;99.90;;;;;;5086340;28;20048;-65
2021/09/30 07:20:41;;;;;;;27.53;10.33;;;10.30;99.90;;;;;;5084952;28;20040;-67
2021/09/30 07:23:07;;;;;;;29.27;12.00;;;10.40;99.90;;;;;;5086186;28;20109;-66
2021/09/30 07:25:33;;;;;;;32.60;12.50;;;10.40;99.90;;;;;;5085527;28;20501;-71
2021/09/30 07:27:58;;;;;;;26.13;10.27;;;10.50;99.90;;;;;;5083105;28;20076;-67
2021/09/30 07:30:24;;;;;;;22.13;9.03;;;10.60;99.90;;;;;;5084357;28;20074;-66
2021/09/30 07:32:50;;;;;;;32.13;9.67;;;10.70;99.90;;;;;;5085339;28;20557;-65
2021/09/30 07:35:15;;;;;;;17.37;7.70;;;10.80;99.90;;;;;;5084884;28;20044;-71
2021/09/30 07:37:41;;;;;;;20.47;7.77;;;10.90;99.90;;;;;;5084258;28;20048;-71
2021/09/30 07:40:07;;;;;;;12.80;6.20;;;11.00;99.90;;;;;;5084747;28;20079;-65
2021/09/30 07:42:33;;;;;;;18.17;7.17;;;11.10;99.90;;;;;;5083930;28;20076;-67
2021/09/30 07:44:59;;;;;;;15.77;6.43;;;11.20;99.90;;;;;;5085380;28;20075;-68
2021/09/30 07:47:25;;;;;;;16.47;5.73;;;11.30;99.90;;;;;;5083633;28;20041;-67
2021/09/30 07:49:51;;;;;;;18.87;6.23;;;11.40;99.90;;;;;;5083830;28;20048;-68
2021/09/30 07:52:16;;;;;;;19.47;6.60;;;11.50;99.90;;;;;;5083539;28;20071;-67
2021/09/30 07:54:42;;;;;;;13.90;5.93;;;11.50;99.90;;;;;;5083913;28;20045;-68
2021/09/30 07:57:08;;;;;;;14.83;5.33;;;11.60;99.90;;;;;;5084197;28;20037;-69
2021/09/30 07:59:34;;;;;;;12.10;4.70;;;11.70;99.90;;;;;;5083536;28;20067;-67
2021/09/30 08:02:00;;;;;;;12.00;5.13;;;11.70;99.90;;;;;;5083830;28;20045;-68
2021/09/30 08:04:25;;;;;;;10.87;4.50;;;11.80;99.90;;;;;;5084880;28;20067;-69
2021/09/30 08:06:54;;;;;;;9.87;4.60;;;11.90;99.90;;;;;;5083552;28;20568;-68
2021/09/30 08:09:19;;;;;;;13.07;3.47;;;12.00;99.90;;;;;;5084226;28;20178;-68
2021/09/30 08:11:46;;;;;;;8.87;3.40;;;12.00;99.90;;;;;;5099893;28;20047;-66
2021/09/30 08:14:13;;;;;;;11.93;3.57;;;12.10;99.90;;;;;;5085080;28;20450;-68
2021/09/30 08:16:38;;;;;;;10.53;2.40;;;12.20;99.90;;;;;;5082762;28;20531;-70
2021/09/30 08:19:04;;;;;;;10.10;2.47;;;12.40;99.90;;;;;;5083618;28;20044;-69
2021/09/30 08:21:30;;;;;;;10.00;2.30;;;12.80;99.90;;;;;;5083636;28;20048;-78
2021/09/30 08:23:56;;;;;;;8.13;2.13;;;13.20;98.60;;;;;;5082633;28;20044;-68
2021/09/30 08:26:25;;;;;;;9.07;1.90;;;13.40;97.60;;;;;;5075439;28;20554;-68
2021/09/30 08:28:52;;;;;;;6.13;1.90;;;13.40;97.20;;;;;;5070754;28;20492;-68
2021/09/30 08:31:21;;;;;;;9.47;2.00;;;13.30;97.00;;;;;;5069548;28;20094;-66
2021/09/30 08:33:47;;;;;;;10.47;1.63;;;13.20;97.10;;;;;;5070157;28;20082;-69
2021/09/30 08:36:13;;;;;;;9.90;1.83;;;13.20;97.40;;;;;;5071201;28;20048;-67
2021/09/30 08:38:40;;;;;;;11.27;2.00;;;13.20;97.40;;;;;;5069851;28;20135;-67
2021/09/30 08:41:07;;;;;;;6.33;1.60;;;13.20;97.20;;;;;;5069984;28;20120;-67
2021/09/30 08:43:33;;;;;;;7.03;1.60;;;13.20;97.10;;;;;;5070460;28;20345;-66
2021/09/30 08:45:59;;;;;;;6.73;1.43;;;13.40;96.90;;;;;;5068766;28;20055;-66
2021/09/30 08:48:25;;;;;;;7.43;1.63;;;13.40;96.80;;;;;;5070693;28;20044;-67
2021/09/30 08:50:51;;;;;;;9.23;2.10;;;13.50;96.70;;;;;;5069692;28;20048;-67
2021/09/30 08:53:17;;;;;;;10.77;2.10;;;13.50;96.40;;;;;;5070221;28;20055;-67
2021/09/30 08:55:43;;;;;;;8.80;1.80;;;13.60;96.40;;;;;;5070126;28;20139;-68
2021/09/30 08:58:09;;;;;;;9.00;1.63;;;13.60;95.90;;;;;;5070122;28;20123;-67
2021/09/30 09:00:38;;;;;;;10.83;1.90;;;13.60;95.80;;;;;;5069869;28;20109;-66
2021/09/30 09:03:04;;;;;;;9.23;1.63;;;13.70;95.60;;;;;;5070571;28;20055;-67
2021/09/30 09:05:30;;;;;;;7.73;1.53;;;13.70;95.30;;;;;;5069699;28;20040;-66
2021/09/30 09:07:57;;;;;;;9.90;2.10;;;13.80;95.20;;;;;;5068677;28;20101;-66
2021/09/30 09:10:26;;;;;;;10.97;2.10;;;13.80;95.10;;;;;;5070099;28;20048;-69
2021/09/30 09:13:04;;;;;;;9.43;1.47;;;13.90;94.90;;;;;;5067617;28;20068;-68
2021/09/30 09:15:42;;;;;;;7.63;1.97;;;13.90;94.50;;;;;;5069367;28;20147;-68
2021/09/30 09:18:16;;;;;;;8.30;1.70;;;14.00;94.20;;;;;;5070491;28;20045;-69
2021/09/30 09:20:44;;;;;;;8.63;1.60;;;14.00;94.20;;;;;;5068162;28;20088;-68
2021/09/30 09:23:10;;;;;;;7.37;1.70;;;14.00;94.10;;;;;;5070014;28;20056;-68
2021/09/30 09:25:37;;;;;;;8.27;1.37;;;14.10;94.10;;;;;;5070142;28;20040;-68
2021/09/30 09:28:03;;;;;;;6.10;1.63;;;14.20;93.50;;;;;;5069499;28;20045;-68
2021/09/30 09:31:01;;;;;;;14.40;1.93;;;14.30;93.10;;;;;;5068209;28;20040;-68
2021/09/30 09:33:33;;;;;;;8.97;1.30;;;14.30;92.00;;;;;;5056530;28;20056;-68
2021/09/30 09:36:12;;;;;;;8.90;1.60;;;14.20;92.70;;;;;;5068899;28;20055;-68
2021/09/30 09:38:52;;;;;;;6.57;1.60;;;14.30;92.60;;;;;;5067124;28;20052;-69
2021/09/30 09:47:27;;;;;;;7.10;1.40;;;14.30;90.80;;;;;;5102794;27;20481;-72
2021/09/30 09:50:28;;;;;;;6.20;2.00;;;14.40;92.30;;;;;;5124260;27;20047;-71
2021/09/30 11:56:53;;;;;;;5.67;1.20;;;15.70;79.60;;;;;;5098862;27;20349;-77
2021/09/30 11:59:21;;;;;;;10.90;1.40;;;15.70;87.40;;;;;;5085892;28;20048;-78
2021/09/30 12:01:49;;;;;;;5.47;1.40;;;15.80;86.40;;;;;;5067420;28;20040;-79
2021/09/30 12:04:30;;;;;;;5.63;1.77;;;15.90;86.00;;;;;;5067286;28;20049;-74
2021/09/30 12:06:57;;;;;;;8.20;1.80;;;16.00;83.40;;;;;;5066824;28;20074;-73
2021/09/30 12:09:23;;;;;;;9.40;1.40;;;16.10;84.30;;;;;;5066151;28;20048;-74
2021/09/30 12:11:55;;;;;;;5.50;1.30;;;16.10;82.40;;;;;;5085498;28;20177;-74
2021/09/30 12:14:22;;;;;;;10.43;1.50;;;16.20;80.60;;;;;;5067050;28;20101;-74
2021/09/30 12:16:57;;;;;;;7.90;1.60;;;16.20;80.40;;;;;;5066185;28;20048;-75
2021/09/30 12:19:39;;;;;;;7.97;1.40;;;16.30;79.70;;;;;;5067947;28;20080;-79
2021/09/30 12:22:12;;;;;;;;;;;16.30;78.00;;;;;;5067647;28;20135;-75
2021/09/30 12:24:49;;;;;;;7.37;1.73;;;16.20;76.80;;;;;;5067624;28;19920;-76
2021/09/30 12:27:17;;;;;;;7.17;1.30;;;16.10;81.10;;;;;;5050083;28;20044;-75
2021/09/30 12:29:46;;;;;;;9.30;1.30;;;16.00;80.20;;;;;;5059846;28;20127;-75
2021/09/30 12:32:19;;;;;;;5.97;1.27;;;15.90;78.50;;;;;;5056141;28;20504;-69
2021/09/30 12:34:59;;;;;;;8.27;1.20;;;15.90;78.10;;;;;;5085492;28;20451;-71
2021/09/30 12:37:27;;;;;;;6.73;1.67;;;15.80;77.40;;;;;;5066978;28;20457;-73
2021/09/30 12:40:04;;;;;;;6.10;1.20;;;15.80;78.40;;;;;;5085082;28;20048;-70
2021/09/30 12:42:31;;;;;;;7.23;1.40;;;15.90;77.40;;;;;;5085190;28;20488;-68
2021/09/30 12:44:57;;;;;;;6.47;0.93;;;16.00;76.50;;;;;;5084237;28;20044;-71
2021/09/30 12:47:38;;;;;;;4.30;1.00;;;16.00;75.90;;;;;;5067317;28;20036;-71
2021/09/30 12:50:16;;;;;;;5.13;1.17;;;16.10;75.20;;;;;;5084366;28;20039;-70
2021/09/30 12:52:43;;;;;;;8.43;1.83;;;16.20;75.80;;;;;;5084678;28;20675;-72
2021/09/30 12:55:15;;;;;;;6.00;1.40;;;16.20;75.20;;;;;;5066431;28;20044;-71
2021/09/30 12:57:40;;;;;;;6.47;1.70;;;16.20;75.20;;;;;;5065858;28;20144;-71
2021/09/30 13:00:07;;;;;;;6.73;1.60;;;16.20;74.10;;;;;;5066796;28;20500;-71
2021/09/30 13:02:36;;;;;;;9.57;1.80;;;16.20;74.60;;;;;;5085083;28;20058;-72
2021/09/30 13:05:02;;;;;;;7.47;1.43;;;16.10;74.30;;;;;;5065427;28;20088;-70
2021/09/30 13:07:44;;;;;;;11.53;1.90;;;16.00;73.60;;;;;;5075163;28;20048;-70
2021/09/30 13:10:10;;;;;;;;;;;15.80;73.70;;;;;;5053881;28;20048;-72
2021/09/30 13:12:36;;;;;;;5.60;1.37;;;15.70;74.20;;;;;;5051931;28;20377;-71
2021/09/30 13:15:01;;;;;;;6.27;1.60;;;15.60;76.90;;;;;;5052714;28;20044;-71
